sensor_id;sensor_type;location;lat;lon;timestamp;P1;durP1;ratioP1;P2;durP2;ratioP2
9775;SDS011;4927;52.472;13.108;2022-08-11T00:01:42;3.30;;;2.60;;
9775;SDS011;4927;52.472;13.108;2022-08-11T00:06:44;2.60;;;2.50;;
9775;SDS011;4927;52.472;13.108;2022-08-11T00:11:55;2.20;;;2.10;;
9775;SDS011;4927;52.472;13.108;2022-08-11T00:17:02;2.40;;;2.30;;
9775;SDS011;4927;52.472;13.108;2022-08-11T00:22:07;2.40;;;2.30;;
9775;SDS011;4927;52.472;13.108;2022-08-11T00:27:13;2.37;;;2.28;;
9775;SDS011;4927;52.472;13.108;2022-08-11T00:32:20;2.53;;;2.35;;
9775;SDS011;4927;52.472;13.108;2022-08-11T00:37:27;2.67;;;2.58;;
9775;SDS011;4927;52.472;13.108;2022-08-11T00:42:42;2.60;;;2.40;;
9775;SDS011;4927;52.472;13.108;2022-08-11T00:48:00;2.50;;;2.40;;
9775;SDS011;4927;52.472;13.108;2022-08-11T00:53:29;2.50;;;2.30;;
9775;SDS011;4927;52.472;13.108;2022-08-11T00:58:44;2.40;;;2.30;;
9775;SDS011;4927;52.472;13.108;2022-08-11T01:04:10;2.80;;;2.60;;
9775;SDS011;4927;52.472;13.108;2022-08-11T01:21:08;2.60;;;2.40;;
9775;SDS011;4927;52.472;13.108;2022-08-11T01:26:28;2.60;;;2.50;;
9775;SDS011;4927;52.472;13.108;2022-08-11T01:37:01;2.70;;;2.50;;
9775;SDS011;4927;52.472;13.108;2022-08-11T01:47:48;3.10;;;2.80;;
9775;SDS011;4927;52.472;13.108;2022-08-11T01:58:59;3.40;;;2.60;;
9775;SDS011;4927;52.472;13.108;2022-08-11T02:09:32;2.83;;;2.72;;
9775;SDS011;4927;52.472;13.108;2022-08-11T02:19:57;2.60;;;2.50;;
9775;SDS011;4927;52.472;13.108;2022-08-11T02:25:16;2.50;;;2.30;;
9775;SDS011;4927;52.472;13.108;2022-08-11T02:30:19;2.90;;;2.70;;
9775;SDS011;4927;52.472;13.108;2022-08-11T02:35:27;3.20;;;2.80;;
9775;SDS011;4927;52.472;13.108;2022-08-11T02:40:34;2.50;;;2.40;;
9775;SDS011;4927;52.472;13.108;2022-08-11T02:56:36;2.60;;;2.40;;
9775;SDS011;4927;52.472;13.108;2022-08-11T03:01:48;2.75;;;2.60;;
9775;SDS011;4927;52.472;13.108;2022-08-11T03:06:58;2.90;;;2.70;;
9775;SDS011;4927;52.472;13.108;2022-08-11T03:12:05;2.80;;;2.70;;
9775;SDS011;4927;52.472;13.108;2022-08-11T03:17:39;2.90;;;2.70;;
9775;SDS011;4927;52.472;13.108;2022-08-11T03:22:59;3.20;;;2.80;;
9775;SDS011;4927;52.472;13.108;2022-08-11T03:28:13;3.00;;;2.90;;
9775;SDS011;4927;52.472;13.108;2022-08-11T03:33:18;3.45;;;3.15;;
9775;SDS011;4927;52.472;13.108;2022-08-11T03:44:08;2.67;;;2.42;;
9775;SDS011;4927;52.472;13.108;2022-08-11T03:49:22;3.00;;;2.80;;
9775;SDS011;4927;52.472;13.108;2022-08-11T03:54:39;3.20;;;2.90;;
9775;SDS011;4927;52.472;13.108;2022-08-11T04:10:33;4.00;;;3.70;;
9775;SDS011;4927;52.472;13.108;2022-08-11T04:15:58;2.70;;;2.60;;
9775;SDS011;4927;52.472;13.108;2022-08-11T04:21:25;3.40;;;3.20;;
9775;SDS011;4927;52.472;13.108;2022-08-11T04:26:55;2.70;;;2.60;;
9775;SDS011;4927;52.472;13.108;2022-08-11T04:43:26;5.90;;;2.90;;
9775;SDS011;4927;52.472;13.108;2022-08-11T04:48:38;2.90;;;2.80;;
9775;SDS011;4927;52.472;13.108;2022-08-11T04:53:55;2.70;;;2.60;;
9775;SDS011;4927;52.472;13.108;2022-08-11T04:59:39;3.35;;;3.15;;
9775;SDS011;4927;52.472;13.108;2022-08-11T05:10:18;3.10;;;3.00;;
9775;SDS011;4927;52.472;13.108;2022-08-11T05:15:35;3.40;;;3.10;;
9775;SDS011;4927;52.472;13.108;2022-08-11T05:20:48;3.42;;;3.12;;
9775;SDS011;4927;52.472;13.108;2022-08-11T05:25:59;4.55;;;3.10;;
9775;SDS011;4927;52.472;13.108;2022-08-11T05:31:12;4.50;;;2.97;;
9775;SDS011;4927;52.472;13.108;2022-08-11T05:36:27;2.80;;;2.70;;
9775;SDS011;4927;52.472;13.108;2022-08-11T05:41:32;3.05;;;2.87;;
9775;SDS011;4927;52.472;13.108;2022-08-11T05:46:45;3.40;;;3.30;;
9775;SDS011;4927;52.472;13.108;2022-08-11T05:51:57;3.20;;;3.10;;
9775;SDS011;4927;52.472;13.108;2022-08-11T05:57:09;3.50;;;3.30;;
9775;SDS011;4927;52.472;13.108;2022-08-11T06:02:16;3.60;;;3.40;;
9775;SDS011;4927;52.472;13.108;2022-08-11T06:07:26;3.45;;;3.30;;
9775;SDS011;4927;52.472;13.108;2022-08-11T06:12:33;3.90;;;3.50;;
9775;SDS011;4927;52.472;13.108;2022-08-11T06:17:43;6.50;;;3.20;;
9775;SDS011;4927;52.472;13.108;2022-08-11T06:22:54;3.87;;;3.45;;
9775;SDS011;4927;52.472;13.108;2022-08-11T06:27:54;4.20;;;3.90;;
9775;SDS011;4927;52.472;13.108;2022-08-11T06:33:02;3.80;;;3.50;;
9775;SDS011;4927;52.472;13.108;2022-08-11T06:38:09;3.70;;;3.50;;
9775;SDS011;4927;52.472;13.108;2022-08-11T06:43:17;3.70;;;3.40;;
9775;SDS011;4927;52.472;13.108;2022-08-11T06:48:21;3.70;;;3.50;;
9775;SDS011;4927;52.472;13.108;2022-08-11T06:53:31;3.83;;;3.62;;
9775;SDS011;4927;52.472;13.108;2022-08-11T06:58:35;3.70;;;3.55;;
9775;SDS011;4927;52.472;13.108;2022-08-11T07:03:49;4.50;;;4.10;;
9775;SDS011;4927;52.472;13.108;2022-08-11T07:09:05;3.72;;;3.42;;
9775;SDS011;4927;52.472;13.108;2022-08-11T07:14:26;4.40;;;3.57;;
9775;SDS011;4927;52.472;13.108;2022-08-11T07:19:38;3.40;;;3.30;;
9775;SDS011;4927;52.472;13.108;2022-08-11T07:24:57;3.40;;;3.10;;
9775;SDS011;4927;52.472;13.108;2022-08-11T07:30:10;3.37;;;3.08;;
9775;SDS011;4927;52.472;13.108;2022-08-11T07:35:17;5.93;;;3.35;;
9775;SDS011;4927;52.472;13.108;2022-08-11T07:40:23;3.58;;;3.28;;
9775;SDS011;4927;52.472;13.108;2022-08-11T07:45:30;3.33;;;3.22;;
9775;SDS011;4927;52.472;13.108;2022-08-11T07:50:43;3.80;;;3.50;;
9775;SDS011;4927;52.472;13.108;2022-08-11T07:55:57;5.00;;;3.03;;
9775;SDS011;4927;52.472;13.108;2022-08-11T08:01:03;2.97;;;2.87;;
9775;SDS011;4927;52.472;13.108;2022-08-11T08:06:15;3.25;;;3.15;;
9775;SDS011;4927;52.472;13.108;2022-08-11T08:11:27;3.60;;;3.30;;
9775;SDS011;4927;52.472;13.108;2022-08-11T08:16:40;2.80;;;2.70;;
9775;SDS011;4927;52.472;13.108;2022-08-11T08:21:52;3.33;;;3.10;;
9775;SDS011;4927;52.472;13.108;2022-08-11T08:26:58;3.25;;;3.05;;
9775;SDS011;4927;52.472;13.108;2022-08-11T08:32:06;3.70;;;3.50;;
9775;SDS011;4927;52.472;13.108;2022-08-11T08:37:11;3.12;;;2.92;;
9775;SDS011;4927;52.472;13.108;2022-08-11T08:42:20;2.97;;;2.75;;
9775;SDS011;4927;52.472;13.108;2022-08-11T08:47:25;3.20;;;2.90;;
9775;SDS011;4927;52.472;13.108;2022-08-11T08:52:36;3.40;;;3.20;;
9775;SDS011;4927;52.472;13.108;2022-08-11T08:57:39;2.80;;;2.53;;
9775;SDS011;4927;52.472;13.108;2022-08-11T09:02:45;2.78;;;2.67;;
9775;SDS011;4927;52.472;13.108;2022-08-11T09:07:52;4.05;;;2.90;;
9775;SDS011;4927;52.472;13.108;2022-08-11T09:12:59;3.15;;;2.95;;
9775;SDS011;4927;52.472;13.108;2022-08-11T09:18:05;3.20;;;2.90;;
9775;SDS011;4927;52.472;13.108;2022-08-11T09:23:11;5.30;;;2.50;;
9775;SDS011;4927;52.472;13.108;2022-08-11T09:28:24;3.15;;;2.85;;
9775;SDS011;4927;52.472;13.108;2022-08-11T09:33:31;2.70;;;2.60;;
9775;SDS011;4927;52.472;13.108;2022-08-11T09:38:37;2.90;;;2.70;;
9775;SDS011;4927;52.472;13.108;2022-08-11T09:43:48;3.70;;;3.10;;
9775;SDS011;4927;52.472;13.108;2022-08-11T09:49:00;2.90;;;2.70;;
9775;SDS011;4927;52.472;13.108;2022-08-11T09:54:07;3.20;;;2.90;;
9775;SDS011;4927;52.472;13.108;2022-08-11T09:59:16;2.62;;;2.42;;
9775;SDS011;4927;52.472;13.108;2022-08-11T10:04:23;3.00;;;2.90;;
9775;SDS011;4927;52.472;13.108;2022-08-11T10:09:26;3.43;;;2.70;;
9775;SDS011;4927;52.472;13.108;2022-08-11T10:14:32;2.60;;;2.50;;
9775;SDS011;4927;52.472;13.108;2022-08-11T10:19:45;2.90;;;2.70;;
9775;SDS011;4927;52.472;13.108;2022-08-11T10:24:51;3.60;;;3.30;;
9775;SDS011;4927;52.472;13.108;2022-08-11T10:30:03;4.00;;;3.80;;
9775;SDS011;4927;52.472;13.108;2022-08-11T10:35:17;3.30;;;3.00;;
9775;SDS011;4927;52.472;13.108;2022-08-11T10:40:25;2.93;;;2.73;;
9775;SDS011;4927;52.472;13.108;2022-08-11T10:45:32;5.17;;;2.80;;
9775;SDS011;4927;52.472;13.108;2022-08-11T10:50:45;5.03;;;2.90;;
9775;SDS011;4927;52.472;13.108;2022-08-11T10:55:57;3.10;;;2.90;;
9775;SDS011;4927;52.472;13.108;2022-08-11T11:01:10;2.93;;;2.80;;
9775;SDS011;4927;52.472;13.108;2022-08-11T11:06:24;2.90;;;2.70;;
9775;SDS011;4927;52.472;13.108;2022-08-11T11:11:34;2.87;;;2.77;;
9775;SDS011;4927;52.472;13.108;2022-08-11T11:16:45;5.30;;;2.60;;
9775;SDS011;4927;52.472;13.108;2022-08-11T11:22:02;3.00;;;2.70;;
9775;SDS011;4927;52.472;13.108;2022-08-11T11:32:32;3.00;;;2.70;;
9775;SDS011;4927;52.472;13.108;2022-08-11T11:37:37;5.30;;;2.60;;
9775;SDS011;4927;52.472;13.108;2022-08-11T11:42:44;4.10;;;3.20;;
9775;SDS011;4927;52.472;13.108;2022-08-11T11:47:52;3.07;;;2.87;;
9775;SDS011;4927;52.472;13.108;2022-08-11T11:52:57;2.70;;;2.60;;
9775;SDS011;4927;52.472;13.108;2022-08-11T11:58:04;10.70;;;3.27;;
9775;SDS011;4927;52.472;13.108;2022-08-11T12:03:17;3.13;;;2.50;;
9775;SDS011;4927;52.472;13.108;2022-08-11T12:08:23;3.07;;;2.77;;
9775;SDS011;4927;52.472;13.108;2022-08-11T12:13:33;4.33;;;2.43;;
9775;SDS011;4927;52.472;13.108;2022-08-11T12:18:51;5.93;;;2.60;;
9775;SDS011;4927;52.472;13.108;2022-08-11T12:23:58;2.47;;;2.37;;
9775;SDS011;4927;52.472;13.108;2022-08-11T12:29:15;3.90;;;2.57;;
9775;SDS011;4927;52.472;13.108;2022-08-11T12:34:20;2.80;;;2.70;;
9775;SDS011;4927;52.472;13.108;2022-08-11T12:39:27;3.50;;;2.90;;
9775;SDS011;4927;52.472;13.108;2022-08-11T12:44:43;3.53;;;3.23;;
9775;SDS011;4927;52.472;13.108;2022-08-11T12:49:53;2.80;;;2.70;;
9775;SDS011;4927;52.472;13.108;2022-08-11T12:55:10;3.40;;;3.10;;
9775;SDS011;4927;52.472;13.108;2022-08-11T13:00:17;3.10;;;2.80;;
9775;SDS011;4927;52.472;13.108;2022-08-11T13:05:29;3.30;;;3.10;;
9775;SDS011;4927;52.472;13.108;2022-08-11T13:10:36;3.80;;;2.90;;
9775;SDS011;4927;52.472;13.108;2022-08-11T13:15:48;3.07;;;2.97;;
9775;SDS011;4927;52.472;13.108;2022-08-11T13:20:55;3.40;;;3.20;;
9775;SDS011;4927;52.472;13.108;2022-08-11T13:26:02;3.33;;;3.03;;
9775;SDS011;4927;52.472;13.108;2022-08-11T13:31:12;3.00;;;2.80;;
9775;SDS011;4927;52.472;13.108;2022-08-11T13:36:20;3.57;;;3.23;;
9775;SDS011;4927;52.472;13.108;2022-08-11T13:41:25;3.20;;;3.00;;
9775;SDS011;4927;52.472;13.108;2022-08-11T13:46:37;3.20;;;3.10;;
9775;SDS011;4927;52.472;13.108;2022-08-11T13:51:43;3.17;;;2.97;;
9775;SDS011;4927;52.472;13.108;2022-08-11T13:56:51;3.20;;;3.00;;
9775;SDS011;4927;52.472;13.108;2022-08-11T14:02:00;12.03;;;2.80;;
9775;SDS011;4927;52.472;13.108;2022-08-11T14:07:09;3.10;;;3.00;;
9775;SDS011;4927;52.472;13.108;2022-08-11T14:12:15;5.60;;;2.70;;
9775;SDS011;4927;52.472;13.108;2022-08-11T14:17:27;3.10;;;2.80;;
9775;SDS011;4927;52.472;13.108;2022-08-11T14:22:32;2.60;;;2.50;;
9775;SDS011;4927;52.472;13.108;2022-08-11T14:27:38;6.30;;;2.90;;
9775;SDS011;4927;52.472;13.108;2022-08-11T14:32:45;2.53;;;2.37;;
9775;SDS011;4927;52.472;13.108;2022-08-11T14:37:51;2.50;;;2.40;;
9775;SDS011;4927;52.472;13.108;2022-08-11T14:43:01;2.83;;;2.60;;
9775;SDS011;4927;52.472;13.108;2022-08-11T14:48:14;3.30;;;2.70;;
9775;SDS011;4927;52.472;13.108;2022-08-11T14:53:20;4.30;;;2.50;;
9775;SDS011;4927;52.472;13.108;2022-08-11T14:58:28;2.60;;;2.40;;
9775;SDS011;4927;52.472;13.108;2022-08-11T15:03:33;4.30;;;2.40;;
9775;SDS011;4927;52.472;13.108;2022-08-11T15:08:40;2.40;;;2.30;;
9775;SDS011;4927;52.472;13.108;2022-08-11T15:13:53;2.40;;;2.30;;
9775;SDS011;4927;52.472;13.108;2022-08-11T15:18:59;5.60;;;2.30;;
9775;SDS011;4927;52.472;13.108;2022-08-11T15:24:06;5.00;;;2.40;;
9775;SDS011;4927;52.472;13.108;2022-08-11T15:29:19;4.33;;;2.50;;
9775;SDS011;4927;52.472;13.108;2022-08-11T15:34:31;2.33;;;2.10;;
9775;SDS011;4927;52.472;13.108;2022-08-11T15:45:19;2.10;;;2.00;;
9775;SDS011;4927;52.472;13.108;2022-08-11T15:50:31;2.00;;;1.90;;
9775;SDS011;4927;52.472;13.108;2022-08-11T15:55:36;4.43;;;4.17;;
9775;SDS011;4927;52.472;13.108;2022-08-11T16:00:48;4.00;;;2.37;;
9775;SDS011;4927;52.472;13.108;2022-08-11T16:06:00;3.00;;;2.10;;
9775;SDS011;4927;52.472;13.108;2022-08-11T16:11:06;1.83;;;1.73;;
9775;SDS011;4927;52.472;13.108;2022-08-11T16:16:12;1.90;;;1.80;;
9775;SDS011;4927;52.472;13.108;2022-08-11T16:21:20;4.07;;;3.67;;
9775;SDS011;4927;52.472;13.108;2022-08-11T16:26:25;3.30;;;2.10;;
9775;SDS011;4927;52.472;13.108;2022-08-11T16:31:31;1.70;;;1.70;;
9775;SDS011;4927;52.472;13.108;2022-08-11T16:36:38;1.70;;;1.60;;
9775;SDS011;4927;52.472;13.108;2022-08-11T16:41:50;2.07;;;1.90;;
9775;SDS011;4927;52.472;13.108;2022-08-11T16:47:05;3.10;;;1.50;;
9775;SDS011;4927;52.472;13.108;2022-08-11T16:52:10;1.70;;;1.60;;
9775;SDS011;4927;52.472;13.108;2022-08-11T16:57:19;6.70;;;1.90;;
9775;SDS011;4927;52.472;13.108;2022-08-11T17:02:31;1.70;;;1.60;;
9775;SDS011;4927;52.472;13.108;2022-08-11T17:07:43;1.67;;;1.57;;
9775;SDS011;4927;52.472;13.108;2022-08-11T17:12:55;1.70;;;1.60;;
9775;SDS011;4927;52.472;13.108;2022-08-11T17:18:07;1.90;;;1.80;;
9775;SDS011;4927;52.472;13.108;2022-08-11T17:38:17;3.20;;;1.60;;
9775;SDS011;4927;52.472;13.108;2022-08-11T17:43:22;3.00;;;1.60;;
9775;SDS011;4927;52.472;13.108;2022-08-11T17:48:36;2.00;;;1.67;;
9775;SDS011;4927;52.472;13.108;2022-08-11T17:53:42;4.73;;;2.50;;
9775;SDS011;4927;52.472;13.108;2022-08-11T17:58:55;4.40;;;1.53;;
9775;SDS011;4927;52.472;13.108;2022-08-11T18:04:08;1.60;;;1.50;;
9775;SDS011;4927;52.472;13.108;2022-08-11T18:09:13;2.90;;;2.70;;
9775;SDS011;4927;52.472;13.108;2022-08-11T18:14:24;1.90;;;1.20;;
9775;SDS011;4927;52.472;13.108;2022-08-11T18:19:37;1.60;;;1.50;;
9775;SDS011;4927;52.472;13.108;2022-08-11T18:24:53;1.90;;;1.40;;
9775;SDS011;4927;52.472;13.108;2022-08-11T18:30:03;1.40;;;1.40;;
9775;SDS011;4927;52.472;13.108;2022-08-11T18:35:17;1.70;;;1.60;;
9775;SDS011;4927;52.472;13.108;2022-08-11T18:40:29;1.90;;;1.80;;
9775;SDS011;4927;52.472;13.108;2022-08-11T18:45:43;7.20;;;2.10;;
9775;SDS011;4927;52.472;13.108;2022-08-11T18:50:55;2.00;;;1.90;;
9775;SDS011;4927;52.472;13.108;2022-08-11T18:56:07;1.87;;;1.77;;
9775;SDS011;4927;52.472;13.108;2022-08-11T19:01:19;1.83;;;1.70;;
9775;SDS011;4927;52.472;13.108;2022-08-11T19:06:31;1.80;;;1.70;;
9775;SDS011;4927;52.472;13.108;2022-08-11T19:11:44;4.20;;;3.90;;
9775;SDS011;4927;52.472;13.108;2022-08-11T19:16:57;3.70;;;3.50;;
9775;SDS011;4927;52.472;13.108;2022-08-11T19:22:08;2.20;;;1.70;;
9775;SDS011;4927;52.472;13.108;2022-08-11T19:27:22;2.70;;;1.98;;
9775;SDS011;4927;52.472;13.108;2022-08-11T19:32:33;2.70;;;2.20;;
9775;SDS011;4927;52.472;13.108;2022-08-11T19:37:46;2.20;;;2.00;;
9775;SDS011;4927;52.472;13.108;2022-08-11T19:42:58;2.50;;;2.30;;
9775;SDS011;4927;52.472;13.108;2022-08-11T19:48:10;2.40;;;2.20;;
9775;SDS011;4927;52.472;13.108;2022-08-11T19:53:23;2.10;;;2.00;;
9775;SDS011;4927;52.472;13.108;2022-08-11T19:58:35;2.08;;;1.98;;
9775;SDS011;4927;52.472;13.108;2022-08-11T20:03:47;2.60;;;2.30;;
9775;SDS011;4927;52.472;13.108;2022-08-11T20:09:00;3.35;;;2.80;;
9775;SDS011;4927;52.472;13.108;2022-08-11T20:14:12;1.92;;;1.83;;
9775;SDS011;4927;52.472;13.108;2022-08-11T20:19:24;2.10;;;1.90;;
9775;SDS011;4927;52.472;13.108;2022-08-11T20:24:38;1.80;;;1.70;;
9775;SDS011;4927;52.472;13.108;2022-08-11T20:29:51;1.75;;;1.65;;
9775;SDS011;4927;52.472;13.108;2022-08-11T20:35:04;2.92;;;1.90;;
9775;SDS011;4927;52.472;13.108;2022-08-11T20:40:15;1.90;;;1.70;;
9775;SDS011;4927;52.472;13.108;2022-08-11T20:45:27;2.12;;;1.50;;
9775;SDS011;4927;52.472;13.108;2022-08-11T20:50:42;2.00;;;1.60;;
9775;SDS011;4927;52.472;13.108;2022-08-11T20:55:54;1.80;;;1.70;;
9775;SDS011;4927;52.472;13.108;2022-08-11T21:01:06;3.62;;;3.42;;
9775;SDS011;4927;52.472;13.108;2022-08-11T21:06:19;1.73;;;1.62;;
9775;SDS011;4927;52.472;13.108;2022-08-11T21:11:32;1.80;;;1.70;;
9775;SDS011;4927;52.472;13.108;2022-08-11T21:16:43;1.80;;;1.80;;
9775;SDS011;4927;52.472;13.108;2022-08-11T21:21:56;3.30;;;1.67;;
9775;SDS011;4927;52.472;13.108;2022-08-11T21:27:07;1.98;;;1.75;;
9775;SDS011;4927;52.472;13.108;2022-08-11T21:32:19;1.80;;;1.70;;
9775;SDS011;4927;52.472;13.108;2022-08-11T21:37:32;2.85;;;2.00;;
9775;SDS011;4927;52.472;13.108;2022-08-11T21:42:44;1.83;;;1.63;;
9775;SDS011;4927;52.472;13.108;2022-08-11T21:47:56;4.70;;;1.70;;
9775;SDS011;4927;52.472;13.108;2022-08-11T21:53:08;2.17;;;2.08;;
9775;SDS011;4927;52.472;13.108;2022-08-11T21:58:23;8.70;;;2.20;;
9775;SDS011;4927;52.472;13.108;2022-08-11T22:03:34;2.70;;;2.30;;
9775;SDS011;4927;52.472;13.108;2022-08-11T22:08:46;2.60;;;2.00;;
9775;SDS011;4927;52.472;13.108;2022-08-11T22:13:59;2.40;;;2.20;;
9775;SDS011;4927;52.472;13.108;2022-08-11T22:19:13;7.10;;;1.97;;
9775;SDS011;4927;52.472;13.108;2022-08-11T22:24:26;2.20;;;2.10;;
9775;SDS011;4927;52.472;13.108;2022-08-11T22:29:38;2.30;;;2.10;;
9775;SDS011;4927;52.472;13.108;2022-08-11T22:34:50;2.60;;;2.40;;
9775;SDS011;4927;52.472;13.108;2022-08-11T22:40:03;2.33;;;2.20;;
9775;SDS011;4927;52.472;13.108;2022-08-11T22:45:17;2.12;;;2.03;;
9775;SDS011;4927;52.472;13.108;2022-08-11T22:50:29;3.53;;;2.30;;
9775;SDS011;4927;52.472;13.108;2022-08-11T22:55:42;3.90;;;2.42;;
9775;SDS011;4927;52.472;13.108;2022-08-11T23:00:55;3.80;;;2.50;;
9775;SDS011;4927;52.472;13.108;2022-08-11T23:06:08;2.50;;;2.30;;
9775;SDS011;4927;52.472;13.108;2022-08-11T23:11:20;2.58;;;2.45;;
9775;SDS011;4927;52.472;13.108;2022-08-11T23:16:33;2.92;;;2.33;;
9775;SDS011;4927;52.472;13.108;2022-08-11T23:21:45;2.58;;;2.25;;
9775;SDS011;4927;52.472;13.108;2022-08-11T23:26:57;5.10;;;2.90;;
9775;SDS011;4927;52.472;13.108;2022-08-11T23:32:10;2.40;;;2.20;;
9775;SDS011;4927;52.472;13.108;2022-08-11T23:37:22;2.50;;;2.30;;
9775;SDS011;4927;52.472;13.108;2022-08-11T23:42:36;4.20;;;2.42;;
9775;SDS011;4927;52.472;13.108;2022-08-11T23:47:49;2.60;;;2.50;;
9775;SDS011;4927;52.472;13.108;2022-08-11T23:53:01;2.40;;;2.20;;
9775;SDS011;4927;52.472;13.108;2022-08-11T23:58:14;2.60;;;2.40;;
